sensor_id;sensor_type;location;lat;lon;timestamp;pressure;altitude;pressure_sealevel;temperature;humidity
21728;BME280;11026;50.560;17.852;2023-08-30T00:01:01;98585.03;;;15.11;100.00
21728;BME280;11026;50.560;17.852;2023-08-30T00:03:29;98585.28;;;15.19;100.00
21728;BME280;11026;50.560;17.852;2023-08-30T00:06:04;98576.47;;;15.30;100.00
21728;BME280;11026;50.560;17.852;2023-08-30T00:08:32;98582.75;;;15.29;100.00
21728;BME280;11026;50.560;17.852;2023-08-30T00:11:01;98589.53;;;15.21;100.00
21728;BME280;11026;50.560;17.852;2023-08-30T00:13:31;98571.72;;;15.22;100.00
21728;BME280;11026;50.560;17.852;2023-08-30T00:15:59;98578.88;;;15.21;100.00
21728;BME280;11026;50.560;17.852;2023-08-30T00:18:27;98580.78;;;15.19;100.00
21728;BME280;11026;50.560;17.852;2023-08-30T00:20:54;98578.63;;;15.13;100.00
21728;BME280;11026;50.560;17.852;2023-08-30T00:23:22;98563.94;;;15.08;100.00
21728;BME280;11026;50.560;17.852;2023-08-30T00:25:49;98563.25;;;15.06;100.00
21728;BME280;11026;50.560;17.852;2023-08-30T00:28:17;98558.88;;;14.93;100.00
21728;BME280;11026;50.560;17.852;2023-08-30T00:30:45;98555.47;;;14.91;100.00
21728;BME280;11026;50.560;17.852;2023-08-30T00:33:13;98553.53;;;14.93;100.00
21728;BME280;11026;50.560;17.852;2023-08-30T00:35:40;98562.25;;;14.95;100.00
21728;BME280;11026;50.560;17.852;2023-08-30T00:38:07;98565.66;;;14.97;100.00
21728;BME280;11026;50.560;17.852;2023-08-30T00:40:51;98569.63;;;14.92;100.00
21728;BME280;11026;50.560;17.852;2023-08-30T00:43:20;98572.91;;;14.95;100.00
21728;BME280;11026;50.560;17.852;2023-08-30T00:45:48;98576.41;;;14.96;100.00
21728;BME280;11026;50.560;17.852;2023-08-30T00:48:17;98583.53;;;14.95;100.00
21728;BME280;11026;50.560;17.852;2023-08-30T00:50:46;98592.91;;;15.01;100.00
21728;BME280;11026;50.560;17.852;2023-08-30T00:53:14;98587.38;;;14.80;100.00
21728;BME280;11026;50.560;17.852;2023-08-30T00:55:42;98580.84;;;14.84;100.00
21728;BME280;11026;50.560;17.852;2023-08-30T00:58:11;98572.44;;;15.02;100.00
21728;BME280;11026;50.560;17.852;2023-08-30T01:00:46;98575.59;;;15.07;100.00
21728;BME280;11026;50.560;17.852;2023-08-30T01:03:14;98575.81;;;15.04;100.00
21728;BME280;11026;50.560;17.852;2023-08-30T01:05:42;98562.63;;;15.02;100.00
21728;BME280;11026;50.560;17.852;2023-08-30T01:08:09;98564.94;;;15.07;100.00
21728;BME280;11026;50.560;17.852;2023-08-30T01:13:50;98562.72;;;15.00;100.00
21728;BME280;11026;50.560;17.852;2023-08-30T01:16:26;98561.78;;;15.02;100.00
21728;BME280;11026;50.560;17.852;2023-08-30T01:18:56;98573.13;;;14.92;100.00
21728;BME280;11026;50.560;17.852;2023-08-30T01:21:32;98565.66;;;14.97;100.00
21728;BME280;11026;50.560;17.852;2023-08-30T01:24:12;98572.66;;;14.98;100.00
21728;BME280;11026;50.560;17.852;2023-08-30T01:29:32;98569.03;;;14.99;100.00
21728;BME280;11026;50.560;17.852;2023-08-30T01:32:01;98566.50;;;14.98;100.00
21728;BME280;11026;50.560;17.852;2023-08-30T01:34:29;98565.88;;;14.94;100.00
21728;BME280;11026;50.560;17.852;2023-08-30T01:36:58;98569.53;;;14.93;100.00
21728;BME280;11026;50.560;17.852;2023-08-30T01:39:29;98563.22;;;14.94;100.00
21728;BME280;11026;50.560;17.852;2023-08-30T01:41:57;98563.94;;;14.96;100.00
21728;BME280;11026;50.560;17.852;2023-08-30T01:44:28;98566.50;;;14.98;100.00
21728;BME280;11026;50.560;17.852;2023-08-30T01:47:02;98562.00;;;14.98;100.00
21728;BME280;11026;50.560;17.852;2023-08-30T01:49:30;98560.56;;;14.94;100.00
21728;BME280;11026;50.560;17.852;2023-08-30T01:52:00;98552.44;;;14.96;100.00
21728;BME280;11026;50.560;17.852;2023-08-30T01:54:28;98554.25;;;14.95;100.00
21728;BME280;11026;50.560;17.852;2023-08-30T01:56:58;98557.66;;;14.97;100.00
21728;BME280;11026;50.560;17.852;2023-08-30T01:59:25;98562.25;;;14.95;100.00
21728;BME280;11026;50.560;17.852;2023-08-30T02:01:52;98571.66;;;14.88;100.00
21728;BME280;11026;50.560;17.852;2023-08-30T02:04:20;98557.91;;;14.94;100.00
21728;BME280;11026;50.560;17.852;2023-08-30T02:07:22;98554.38;;;14.94;100.00
21728;BME280;11026;50.560;17.852;2023-08-30T02:09:58;98555.47;;;14.91;100.00
21728;BME280;11026;50.560;17.852;2023-08-30T02:12:52;98557.91;;;14.94;100.00
21728;BME280;11026;50.560;17.852;2023-08-30T02:15:23;98549.53;;;14.88;100.00
21728;BME280;11026;50.560;17.852;2023-08-30T02:17:55;98545.03;;;14.88;100.00
21728;BME280;11026;50.560;17.852;2023-08-30T02:20:23;98543.13;;;14.90;100.00
21728;BME280;11026;50.560;17.852;2023-08-30T02:22:50;98541.16;;;14.92;100.00
21728;BME280;11026;50.560;17.852;2023-08-30T02:25:19;98533.94;;;14.94;100.00
21728;BME280;11026;50.560;17.852;2023-08-30T02:27:52;98527.16;;;14.90;100.00
21728;BME280;11026;50.560;17.852;2023-08-30T02:30:21;98527.38;;;14.87;100.00
21728;BME280;11026;50.560;17.852;2023-08-30T02:32:50;98521.81;;;14.90;100.00
21728;BME280;11026;50.560;17.852;2023-08-30T02:35:17;98520.81;;;14.80;100.00
21728;BME280;11026;50.560;17.852;2023-08-30T02:37:44;98510.78;;;14.84;100.00
21728;BME280;11026;50.560;17.852;2023-08-30T02:40:14;98507.91;;;14.87;100.00
21728;BME280;11026;50.560;17.852;2023-08-30T02:42:42;98517.34;;;14.91;100.00
21728;BME280;11026;50.560;17.852;2023-08-30T02:45:10;98520.00;;;14.91;100.00
21728;BME280;11026;50.560;17.852;2023-08-30T02:47:37;98528.00;;;14.91;100.00
21728;BME280;11026;50.560;17.852;2023-08-30T02:50:11;98540.22;;;14.82;100.00
21728;BME280;11026;50.560;17.852;2023-08-30T02:52:38;98541.88;;;14.83;100.00
21728;BME280;11026;50.560;17.852;2023-08-30T02:55:05;98546.69;;;14.67;100.00
21728;BME280;11026;50.560;17.852;2023-08-30T02:57:33;98548.41;;;14.79;100.00
21728;BME280;11026;50.560;17.852;2023-08-30T03:00:00;98544.06;;;14.78;100.00
21728;BME280;11026;50.560;17.852;2023-08-30T03:02:27;98544.44;;;14.85;100.00
21728;BME280;11026;50.560;17.852;2023-08-30T03:04:55;98542.63;;;14.85;100.00
21728;BME280;11026;50.560;17.852;2023-08-30T03:07:23;98539.47;;;14.91;100.00
21728;BME280;11026;50.560;17.852;2023-08-30T03:09:54;98539.47;;;14.91;100.00
21728;BME280;11026;50.560;17.852;2023-08-30T03:12:22;98537.78;;;14.90;100.00
21728;BME280;11026;50.560;17.852;2023-08-30T03:14:49;98519.88;;;14.92;100.00
21728;BME280;11026;50.560;17.852;2023-08-30T03:17:17;98524.34;;;14.92;100.00
21728;BME280;11026;50.560;17.852;2023-08-30T03:19:45;98521.44;;;14.84;100.00
21728;BME280;11026;50.560;17.852;2023-08-30T03:22:12;98522.41;;;14.83;100.00
21728;BME280;11026;50.560;17.852;2023-08-30T03:24:40;98522.53;;;14.81;100.00
21728;BME280;11026;50.560;17.852;2023-08-30T03:27:07;98527.59;;;14.84;100.00
21728;BME280;11026;50.560;17.852;2023-08-30T03:29:35;98524.22;;;14.82;100.00
21728;BME280;11026;50.560;17.852;2023-08-30T03:32:02;98523.25;;;14.83;100.00
21728;BME280;11026;50.560;17.852;2023-08-30T03:34:29;98523.13;;;14.85;100.00
21728;BME280;11026;50.560;17.852;2023-08-30T03:36:57;98528.09;;;14.78;100.00
21728;BME280;11026;50.560;17.852;2023-08-30T03:39:25;98525.91;;;14.83;100.00
21728;BME280;11026;50.560;17.852;2023-08-30T03:41:53;98527.25;;;14.78;100.00
21728;BME280;11026;50.560;17.852;2023-08-30T03:44:20;98521.94;;;14.78;100.00
21728;BME280;11026;50.560;17.852;2023-08-30T03:46:55;98526.41;;;14.77;100.00
21728;BME280;11026;50.560;17.852;2023-08-30T03:49:23;98535.09;;;14.79;100.00
21728;BME280;11026;50.560;17.852;2023-08-30T03:51:51;98523.13;;;14.73;100.00
21728;BME280;11026;50.560;17.852;2023-08-30T03:54:18;98521.94;;;14.78;100.00
21728;BME280;11026;50.560;17.852;2023-08-30T03:56:46;98525.53;;;14.76;100.00
21728;BME280;11026;50.560;17.852;2023-08-30T03:59:13;98523.38;;;14.70;100.00
21728;BME280;11026;50.560;17.852;2023-08-30T04:01:41;98530.50;;;14.70;100.00
21728;BME280;11026;50.560;17.852;2023-08-30T04:04:09;98530.72;;;14.67;100.00
21728;BME280;11026;50.560;17.852;2023-08-30T04:06:38;98522.88;;;14.65;100.00
21728;BME280;11026;50.560;17.852;2023-08-30T04:09:05;98526.59;;;14.63;100.00
21728;BME280;11026;50.560;17.852;2023-08-30T04:11:33;98532.41;;;14.68;100.00
21728;BME280;11026;50.560;17.852;2023-08-30T04:14:01;98535.09;;;14.68;100.00
21728;BME280;11026;50.560;17.852;2023-08-30T04:16:29;98525.41;;;14.67;100.00
21728;BME280;11026;50.560;17.852;2023-08-30T04:18:56;98530.00;;;14.65;100.00
21728;BME280;11026;50.560;17.852;2023-08-30T04:21:24;98528.69;;;14.70;100.00
21728;BME280;11026;50.560;17.852;2023-08-30T04:23:51;98534.97;;;14.69;100.00
21728;BME280;11026;50.560;17.852;2023-08-30T04:26:19;98534.97;;;14.69;100.00
21728;BME280;11026;50.560;17.852;2023-08-30T04:28:46;98536.78;;;14.69;100.00
21728;BME280;11026;50.560;17.852;2023-08-30T04:31:13;98533.41;;;14.67;100.00
21728;BME280;11026;50.560;17.852;2023-08-30T04:33:41;98535.56;;;14.62;100.00
21728;BME280;11026;50.560;17.852;2023-08-30T04:36:16;98533.88;;;14.72;100.00
21728;BME280;11026;50.560;17.852;2023-08-30T04:38:44;98535.59;;;14.73;100.00
21728;BME280;11026;50.560;17.852;2023-08-30T04:41:28;98531.34;;;14.70;100.00
21728;BME280;11026;50.560;17.852;2023-08-30T04:43:57;98525.78;;;14.73;100.00
21728;BME280;11026;50.560;17.852;2023-08-30T04:46:24;98522.38;;;14.71;100.00
21728;BME280;11026;50.560;17.852;2023-08-30T04:48:52;98526.13;;;14.69;100.00
21728;BME280;11026;50.560;17.852;2023-08-30T04:51:19;98512.81;;;14.69;100.00
21728;BME280;11026;50.560;17.852;2023-08-30T04:53:46;98520.22;;;14.65;100.00
21728;BME280;11026;50.560;17.852;2023-08-30T04:56:14;98526.25;;;14.67;100.00
21728;BME280;11026;50.560;17.852;2023-08-30T04:58:41;98529.66;;;14.69;100.00
21728;BME280;11026;50.560;17.852;2023-08-30T05:01:10;98525.63;;;14.64;100.00
21728;BME280;11026;50.560;17.852;2023-08-30T05:03:40;98523.59;;;14.67;100.00
21728;BME280;11026;50.560;17.852;2023-08-30T05:06:08;98513.31;;;14.63;100.00
21728;BME280;11026;50.560;17.852;2023-08-30T05:08:35;98509.91;;;14.61;100.00
21728;BME280;11026;50.560;17.852;2023-08-30T05:11:02;98516.94;;;14.62;100.00
21728;BME280;11026;50.560;17.852;2023-08-30T05:13:38;98525.75;;;14.62;100.00
21728;BME280;11026;50.560;17.852;2023-08-30T05:16:05;98530.88;;;14.65;100.00
21728;BME280;11026;50.560;17.852;2023-08-30T05:18:35;98528.06;;;14.67;100.00
21728;BME280;11026;50.560;17.852;2023-08-30T05:21:02;98537.75;;;14.68;100.00
21728;BME280;11026;50.560;17.852;2023-08-30T05:23:32;98541.16;;;14.70;100.00
21728;BME280;11026;50.560;17.852;2023-08-30T05:25:59;98541.59;;;14.64;100.00
21728;BME280;11026;50.560;17.852;2023-08-30T05:28:28;98548.38;;;14.68;100.00
21728;BME280;11026;50.560;17.852;2023-08-30T05:30:55;98547.41;;;14.69;100.00
21728;BME280;11026;50.560;17.852;2023-08-30T05:33:23;98542.59;;;14.74;100.00
21728;BME280;11026;50.560;17.852;2023-08-30T05:35:50;98547.56;;;14.79;100.00
21728;BME280;11026;50.560;17.852;2023-08-30T05:38:18;98546.72;;;14.78;100.00
21728;BME280;11026;50.560;17.852;2023-08-30T05:40:46;98551.09;;;14.79;100.00
21728;BME280;11026;50.560;17.852;2023-08-30T05:43:14;98539.81;;;14.75;100.00
21728;BME280;11026;50.560;17.852;2023-08-30T05:45:43;98547.22;;;14.83;100.00
21728;BME280;11026;50.560;17.852;2023-08-30T05:48:10;98547.69;;;14.88;100.00
21728;BME280;11026;50.560;17.852;2023-08-30T05:50:38;98548.81;;;14.86;100.00
21728;BME280;11026;50.560;17.852;2023-08-30T05:53:05;98550.47;;;14.75;100.00
21728;BME280;11026;50.560;17.852;2023-08-30T05:55:35;98554.75;;;14.89;100.00
21728;BME280;11026;50.560;17.852;2023-08-30T05:58:03;98549.16;;;14.81;100.00
21728;BME280;11026;50.560;17.852;2023-08-30T06:00:30;98554.25;;;14.95;100.00
21728;BME280;11026;50.560;17.852;2023-08-30T06:02:57;98555.72;;;14.99;100.00
21728;BME280;11026;50.560;17.852;2023-08-30T06:05:25;98556.47;;;15.02;100.00
21728;BME280;11026;50.560;17.852;2023-08-30T06:07:53;98563.25;;;15.06;100.00
21728;BME280;11026;50.560;17.852;2023-08-30T06:10:23;98565.16;;;15.04;100.00
21728;BME280;11026;50.560;17.852;2023-08-30T06:12:51;98555.84;;;14.98;100.00
21728;BME280;11026;50.560;17.852;2023-08-30T06:15:19;98559.84;;;15.04;100.00
21728;BME280;11026;50.560;17.852;2023-08-30T06:17:46;98561.66;;;15.03;100.00
21728;BME280;11026;50.560;17.852;2023-08-30T06:20:13;98559.59;;;15.07;100.00
21728;BME280;11026;50.560;17.852;2023-08-30T06:22:47;98555.84;;;14.98;100.00
21728;BME280;11026;50.560;17.852;2023-08-30T06:25:14;98560.56;;;14.94;100.00
21728;BME280;11026;50.560;17.852;2023-08-30T06:27:43;98558.25;;;14.90;100.00
21728;BME280;11026;50.560;17.852;2023-08-30T06:30:13;98554.84;;;14.88;100.00
21728;BME280;11026;50.560;17.852;2023-08-30T06:32:41;98557.41;;;14.89;100.00
21728;BME280;11026;50.560;17.852;2023-08-30T06:35:10;98561.59;;;14.81;100.00
21728;BME280;11026;50.560;17.852;2023-08-30T06:37:38;98564.53;;;14.78;100.00
21728;BME280;11026;50.560;17.852;2023-08-30T06:40:05;98559.56;;;14.84;100.00
21728;BME280;11026;50.560;17.852;2023-08-30T06:42:33;98551.25;;;14.89;100.00
21728;BME280;11026;50.560;17.852;2023-08-30T06:45:01;98557.16;;;14.92;100.00
21728;BME280;11026;50.560;17.852;2023-08-30T06:47:30;98562.34;;;14.83;100.00
21728;BME280;11026;50.560;17.852;2023-08-30T06:49:57;98564.63;;;14.76;100.00
21728;BME280;11026;50.560;17.852;2023-08-30T06:52:26;98564.88;;;14.73;100.00
21728;BME280;11026;50.560;17.852;2023-08-30T06:54:53;98568.13;;;14.76;100.00
21728;BME280;11026;50.560;17.852;2023-08-30T06:57:21;98571.03;;;14.73;100.00
21728;BME280;11026;50.560;17.852;2023-08-30T06:59:49;98578.44;;;14.81;100.00
21728;BME280;11026;50.560;17.852;2023-08-30T07:02:16;98575.53;;;14.84;100.00
21728;BME280;11026;50.560;17.852;2023-08-30T07:04:43;98570.81;;;14.88;100.00
21728;BME280;11026;50.560;17.852;2023-08-30T07:07:12;98577.00;;;14.88;100.00
21728;BME280;11026;50.560;17.852;2023-08-30T07:09:40;98580.63;;;14.87;100.00
21728;BME280;11026;50.560;17.852;2023-08-30T07:12:08;98574.59;;;14.85;100.00
21728;BME280;11026;50.560;17.852;2023-08-30T07:14:36;98577.97;;;14.87;100.00
21728;BME280;11026;50.560;17.852;2023-08-30T07:17:03;98585.34;;;14.84;100.00
21728;BME280;11026;50.560;17.852;2023-08-30T07:19:31;98594.69;;;14.89;100.00
21728;BME280;11026;50.560;17.852;2023-08-30T07:21:58;98599.22;;;14.76;100.00
21728;BME280;11026;50.560;17.852;2023-08-30T07:24:25;98599.47;;;14.73;100.00
21728;BME280;11026;50.560;17.852;2023-08-30T07:26:53;98608.75;;;14.67;100.00
21728;BME280;11026;50.560;17.852;2023-08-30T07:29:21;98617.59;;;14.68;100.00
21728;BME280;11026;50.560;17.852;2023-08-30T07:31:48;98628.00;;;14.71;100.00
21728;BME280;11026;50.560;17.852;2023-08-30T07:34:18;98621.22;;;14.67;100.00
21728;BME280;11026;50.560;17.852;2023-08-30T07:36:45;98616.75;;;14.67;100.00
21728;BME280;11026;50.560;17.852;2023-08-30T07:39:16;98621.72;;;14.72;100.00
21728;BME280;11026;50.560;17.852;2023-08-30T07:41:43;98617.16;;;14.74;100.00
21728;BME280;11026;50.560;17.852;2023-08-30T07:44:11;98623.81;;;14.80;100.00
21728;BME280;11026;50.560;17.852;2023-08-30T07:46:38;98622.69;;;14.71;100.00
21728;BME280;11026;50.560;17.852;2023-08-30T07:49:06;98623.72;;;14.81;100.00
21728;BME280;11026;50.560;17.852;2023-08-30T07:51:34;98626.94;;;14.73;100.00
21728;BME280;11026;50.560;17.852;2023-08-30T07:54:03;98622.25;;;14.77;100.00
21728;BME280;11026;50.560;17.852;2023-08-30T07:56:31;98625.63;;;14.79;100.00
21728;BME280;11026;50.560;17.852;2023-08-30T07:58:59;98620.78;;;14.73;100.00
21728;BME280;11026;50.560;17.852;2023-08-30T08:01:26;98622.59;;;14.84;100.00
21728;BME280;11026;50.560;17.852;2023-08-30T08:03:54;98623.56;;;14.83;100.00
21728;BME280;11026;50.560;17.852;2023-08-30T08:06:32;98626.25;;;14.83;100.00
21728;BME280;11026;50.560;17.852;2023-08-30T08:09:01;98617.81;;;15.00;100.00
21728;BME280;11026;50.560;17.852;2023-08-30T08:11:29;98607.28;;;14.98;100.00
21728;BME280;11026;50.560;17.852;2023-08-30T08:13:57;98611.88;;;14.96;100.00
21728;BME280;11026;50.560;17.852;2023-08-30T08:16:25;98608.25;;;14.97;100.00
21728;BME280;11026;50.560;17.852;2023-08-30T08:18:53;98622.41;;;14.98;100.00
21728;BME280;11026;50.560;17.852;2023-08-30T08:21:22;98616.59;;;15.04;100.00
21728;BME280;11026;50.560;17.852;2023-08-30T08:23:50;98620.72;;;15.08;100.00
21728;BME280;11026;50.560;17.852;2023-08-30T08:26:23;98622.19;;;15.12;100.00
21728;BME280;11026;50.560;17.852;2023-08-30T08:28:51;98628.41;;;15.35;100.00
21728;BME280;11026;50.560;17.852;2023-08-30T08:31:19;98629.84;;;15.39;100.00
21728;BME280;11026;50.560;17.852;2023-08-30T08:33:46;98628.91;;;15.52;100.00
21728;BME280;11026;50.560;17.852;2023-08-30T08:36:13;98632.78;;;15.59;100.00
21728;BME280;11026;50.560;17.852;2023-08-30T08:38:41;98637.75;;;15.63;100.00
21728;BME280;11026;50.560;17.852;2023-08-30T08:41:12;98640.34;;;15.76;100.00
21728;BME280;11026;50.560;17.852;2023-08-30T08:43:43;98648.34;;;15.76;100.00
21728;BME280;11026;50.560;17.852;2023-08-30T08:46:13;98650.97;;;15.87;100.00
21728;BME280;11026;50.560;17.852;2023-08-30T08:48:43;98652.44;;;15.91;100.00
21728;BME280;11026;50.560;17.852;2023-08-30T08:51:18;98655.72;;;15.95;100.00
21728;BME280;11026;50.560;17.852;2023-08-30T08:53:45;98659.59;;;15.91;100.00
21728;BME280;11026;50.560;17.852;2023-08-30T08:56:13;98655.34;;;15.99;100.00
21728;BME280;11026;50.560;17.852;2023-08-30T08:58:42;98656.69;;;15.94;100.00
21728;BME280;11026;50.560;17.852;2023-08-30T09:01:11;98649.75;;;16.03;100.00
21728;BME280;11026;50.560;17.852;2023-08-30T09:04:10;98642.25;;;16.08;100.00
21728;BME280;11026;50.560;17.852;2023-08-30T09:06:40;98648.75;;;16.15;100.00
21728;BME280;11026;50.560;17.852;2023-08-30T09:09:10;98647.53;;;16.30;100.00
21728;BME280;11026;50.560;17.852;2023-08-30T09:11:37;98650.69;;;16.35;100.00
21728;BME280;11026;50.560;17.852;2023-08-30T09:14:17;98645.34;;;16.35;100.00
21728;BME280;11026;50.560;17.852;2023-08-30T09:17:01;98639.25;;;16.44;100.00
21728;BME280;11026;50.560;17.852;2023-08-30T09:19:29;98655.25;;;16.44;100.00
21728;BME280;11026;50.560;17.852;2023-08-30T09:21:58;98652.81;;;16.53;100.00
21728;BME280;11026;50.560;17.852;2023-08-30T09:24:36;98650.84;;;16.55;100.00
21728;BME280;11026;50.560;17.852;2023-08-30T09:27:04;98652.44;;;16.57;100.00
21728;BME280;11026;50.560;17.852;2023-08-30T09:29:31;98653.47;;;16.66;100.00
21728;BME280;11026;50.560;17.852;2023-08-30T09:32:01;98661.34;;;16.79;100.00
21728;BME280;11026;50.560;17.852;2023-08-30T09:34:28;98656.88;;;16.79;100.00
21728;BME280;11026;50.560;17.852;2023-08-30T09:36:56;98661.25;;;16.80;100.00
21728;BME280;11026;50.560;17.852;2023-08-30T09:39:27;98656.34;;;16.85;100.00
21728;BME280;11026;50.560;17.852;2023-08-30T09:41:55;98652.91;;;16.94;100.00
21728;BME280;11026;50.560;17.852;2023-08-30T09:44:22;98655.59;;;17.15;100.00
21728;BME280;11026;50.560;17.852;2023-08-30T09:46:54;98652.66;;;17.39;100.00
21728;BME280;11026;50.560;17.852;2023-08-30T09:49:24;98656.56;;;17.35;100.00
21728;BME280;11026;50.560;17.852;2023-08-30T09:51:53;98656.56;;;17.35;100.00
21728;BME280;11026;50.560;17.852;2023-08-30T09:54:23;98652.88;;;17.27;100.00
21728;BME280;11026;50.560;17.852;2023-08-30T09:56:54;98657.28;;;17.37;100.00
21728;BME280;11026;50.560;17.852;2023-08-30T09:59:25;98655.97;;;17.53;100.00
21728;BME280;11026;50.560;17.852;2023-08-30T10:01:53;98652.88;;;17.57;100.00
21728;BME280;11026;50.560;17.852;2023-08-30T10:04:22;98654.09;;;17.74;100.00
21728;BME280;11026;50.560;17.852;2023-08-30T10:06:57;98655.34;;;17.70;100.00
21728;BME280;11026;50.560;17.852;2023-08-30T10:09:32;98651.06;;;17.58;100.00
21728;BME280;11026;50.560;17.852;2023-08-30T10:12:03;98644.38;;;17.73;100.00
21728;BME280;11026;50.560;17.852;2023-08-30T10:14:31;98654.44;;;17.60;100.00
21728;BME280;11026;50.560;17.852;2023-08-30T10:17:02;98661.81;;;17.67;100.00
21728;BME280;11026;50.560;17.852;2023-08-30T10:19:31;98660.06;;;17.57;100.00
21728;BME280;11026;50.560;17.852;2023-08-30T10:22:04;98655.72;;;17.35;100.00
21728;BME280;11026;50.560;17.852;2023-08-30T10:24:38;98655.22;;;17.20;100.00
21728;BME280;11026;50.560;17.852;2023-08-30T10:27:30;98644.06;;;17.15;100.00
21728;BME280;11026;50.560;17.852;2023-08-30T10:30:01;98651.81;;;17.18;100.00
21728;BME280;11026;50.560;17.852;2023-08-30T10:32:31;98654.09;;;17.23;100.00
21728;BME280;11026;50.560;17.852;2023-08-30T10:35:01;98649.88;;;17.20;100.00
21728;BME280;11026;50.560;17.852;2023-08-30T10:37:30;98654.22;;;17.21;100.00
21728;BME280;11026;50.560;17.852;2023-08-30T10:40:00;98653.97;;;17.24;100.00
21728;BME280;11026;50.560;17.852;2023-08-30T10:42:39;98649.66;;;17.33;100.00
21728;BME280;11026;50.560;17.852;2023-08-30T10:45:23;98656.63;;;17.24;100.00
21728;BME280;11026;50.560;17.852;2023-08-30T10:47:55;98658.41;;;17.35;100.00
21728;BME280;11026;50.560;17.852;2023-08-30T10:50:32;98653.97;;;17.24;100.00
21728;BME280;11026;50.560;17.852;2023-08-30T10:53:00;98655.91;;;17.43;100.00
21728;BME280;11026;50.560;17.852;2023-08-30T10:55:27;98651.00;;;17.48;100.00
21728;BME280;11026;50.560;17.852;2023-08-30T10:58:03;98661.31;;;17.53;100.00
21728;BME280;11026;50.560;17.852;2023-08-30T11:00:31;98653.81;;;17.26;100.00
21728;BME280;11026;50.560;17.852;2023-08-30T11:02:58;98665.94;;;17.09;100.00
21728;BME280;11026;50.560;17.852;2023-08-30T11:05:28;98671.34;;;16.98;100.00
21728;BME280;11026;50.560;17.852;2023-08-30T11:08:03;98672.97;;;17.10;100.00
21728;BME280;11026;50.560;17.852;2023-08-30T11:10:32;98674.16;;;17.17;100.00
21728;BME280;11026;50.560;17.852;2023-08-30T11:13:01;98665.50;;;17.25;100.00
21728;BME280;11026;50.560;17.852;2023-08-30T11:15:28;98675.94;;;17.28;100.00
21728;BME280;11026;50.560;17.852;2023-08-30T11:18:02;98667.66;;;17.31;100.00
21728;BME280;11026;50.560;17.852;2023-08-30T11:20:31;98669.47;;;17.30;100.00
21728;BME280;11026;50.560;17.852;2023-08-30T11:23:02;98665.66;;;17.23;100.00
21728;BME280;11026;50.560;17.852;2023-08-30T11:25:30;98660.69;;;17.18;100.00
21728;BME280;11026;50.560;17.852;2023-08-30T11:28:04;98657.78;;;17.10;100.00
21728;BME280;11026;50.560;17.852;2023-08-30T11:30:31;98657.09;;;16.87;100.00
21728;BME280;11026;50.560;17.852;2023-08-30T11:32:59;98653.94;;;16.82;100.00
21728;BME280;11026;50.560;17.852;2023-08-30T11:35:26;98654.22;;;16.79;100.00
21728;BME280;11026;50.560;17.852;2023-08-30T11:37:54;98663.97;;;16.90;100.00
21728;BME280;11026;50.560;17.852;2023-08-30T11:40:22;98656.09;;;16.88;100.00
21728;BME280;11026;50.560;17.852;2023-08-30T11:42:56;98661.31;;;16.90;100.00
21728;BME280;11026;50.560;17.852;2023-08-30T11:45:24;98663.59;;;16.94;100.00
21728;BME280;11026;50.560;17.852;2023-08-30T11:47:51;98664.16;;;16.77;100.00
21728;BME280;11026;50.560;17.852;2023-08-30T11:50:20;98657.78;;;16.89;100.00
21728;BME280;11026;50.560;17.852;2023-08-30T11:52:50;98665.84;;;16.78;100.00
21728;BME280;11026;50.560;17.852;2023-08-30T11:55:18;98658.81;;;16.77;100.00
21728;BME280;11026;50.560;17.852;2023-08-30T11:57:50;98667.16;;;16.52;100.00
21728;BME280;11026;50.560;17.852;2023-08-30T12:00:21;98666.41;;;16.50;100.00
21728;BME280;11026;50.560;17.852;2023-08-30T12:02:48;98671.28;;;16.44;100.00
21728;BME280;11026;50.560;17.852;2023-08-30T12:05:16;98670.47;;;16.21;100.00
21728;BME280;11026;50.560;17.852;2023-08-30T12:07:45;98669.63;;;16.21;100.00
21728;BME280;11026;50.560;17.852;2023-08-30T12:10:18;98665.19;;;15.88;100.00
21728;BME280;11026;50.560;17.852;2023-08-30T12:12:47;98660.81;;;15.98;100.00
21728;BME280;11026;50.560;17.852;2023-08-30T12:15:14;98662.94;;;16.27;100.00
21728;BME280;11026;50.560;17.852;2023-08-30T12:17:44;98659.25;;;16.39;100.00
21728;BME280;11026;50.560;17.852;2023-08-30T12:20:17;98664.09;;;16.56;100.00
21728;BME280;11026;50.560;17.852;2023-08-30T12:22:48;98667.03;;;16.85;100.00
21728;BME280;11026;50.560;17.852;2023-08-30T12:25:22;98667.06;;;17.06;100.00
21728;BME280;11026;50.560;17.852;2023-08-30T12:27:53;98660.88;;;17.06;100.00
21728;BME280;11026;50.560;17.852;2023-08-30T12:30:20;98673.25;;;17.07;100.00
21728;BME280;11026;50.560;17.852;2023-08-30T12:32:48;98670.72;;;16.73;100.00
21728;BME280;11026;50.560;17.852;2023-08-30T12:35:16;98663.44;;;16.75;100.00
21728;BME280;11026;50.560;17.852;2023-08-30T12:37:43;98663.22;;;16.67;100.00
21728;BME280;11026;50.560;17.852;2023-08-30T12:40:16;98656.31;;;16.53;100.00
21728;BME280;11026;50.560;17.852;2023-08-30T12:42:44;98660.44;;;16.57;100.00
21728;BME280;11026;50.560;17.852;2023-08-30T12:45:13;98656.16;;;16.77;100.00
21728;BME280;11026;50.560;17.852;2023-08-30T12:47:41;98660.22;;;16.92;100.00
21728;BME280;11026;50.560;17.852;2023-08-30T12:50:08;98664.78;;;17.02;100.00
21728;BME280;11026;50.560;17.852;2023-08-30T12:52:36;98666.53;;;17.12;100.00
21728;BME280;11026;50.560;17.852;2023-08-30T12:55:06;98667.84;;;17.18;100.00
21728;BME280;11026;50.560;17.852;2023-08-30T12:57:34;98666.69;;;17.32;100.00